National Weather Service Raw Text Product

Displaying AFOS PIL: TAFMCW Received: 2018-12-06 10:03 UTC


544 
FTUS43 KDMX 061003 AAA
TAFMCW
TAF AMD
KMCW 061003Z 0610/0706 30007KT P6SM SKC
     FM061600 32011KT P6SM BKN025
     FM062000 31012KT P6SM BKN080
     FM070100 30007KT P6SM SKC=